Live WebCam Live WebCam



Wind From: 18-09-2018 23:00 Until: 19-09-2018 22:59 warning for: Wind Level: Yellow info button
s. The strongest wind gust is expected on the coast and in the mountain.


Larger loose items may be taken by the wind. Secure loose items.<

Nearby METAR Reports

  
ENBR - Bergen/Flesland, Norway
Distance from station: E 6km
Updated: 19-09-2018 20:20
Nearby showers, Mostly Cloudy
Nearby showers, Mostly Cloudy  
 Wind from S
Wind: S 70 km/h, Gust: 98 km/h
Temperature:  16°C
Dew Point:  12°C
Humidity:  77%
Barometer:  988 hPa
Summary:  Nearby Showers
Clouds:  Mostly Cloudy
Visibility:  10 km
Cloud details:  Few Clouds 305 m
Partly Cloudy 549 m
Mostly Cloudy 732 m
2018/09/19 18:20 ENBR 191820Z 18038G53KT 9999 VCSH FEW010 SCT018 BKN024 16/12 Q0988 NOSIG RMK WIND 1200FT 18052G72KT
ENSO - Stord/Soerstokke, Norway
Distance from station: SSE 56km
Updated: 19-09-2018 19:20
NOT Current
Rain drizzle, Mist, Mostly Cloudy
Rain drizzle, Mist, Mostly Cloudy  
 Wind from S
Wind: S 48 km/h, Gust: 78 km/h
Temperature:  15°C
Dew Point:  13°C
Humidity:  88%
Barometer:  991 hPa
Summary:  Rain drizzle, Mist
Clouds:  Mostly Cloudy
Visibility:  5 km
Cloud details:  Partly Cloudy 366 m
Mostly Cloudy 671 m
2018/09/19 17:20 ENSO 191720Z 18026G42KT 5000 RADZ BR SCT012 BKN022 15/13 Q0991
ENQA - Troll-A Heli, Norway
Distance from station: WNW 87km
Updated: 19-09-2018 20:20
Mostly Cloudy
Mostly Cloudy  
 Wind from S
Wind: S 104 km/h
Temperature:  13°C
Dew Point:  8°C
Humidity:  72%
Barometer:  981 hPa
Clouds:  Mostly Cloudy
Visibility:  11 miles
Cloud details:  Mostly Cloudy 823 m
2018/09/19 18:20 ENQA 191820Z AUTO 19056KT 7000NDV BKN027/// 13/08 Q0981 W11/S6
ENHD - Haugesund/Karmoy, Norway
Distance from station: S 103km
Updated: 19-09-2018 20:20
Light rain, Partly cloudy
Light rain, Partly cloudy  
 Wind from S
Wind: S 74 km/h, Gust: 109 km/h
Temperature:  16°C
Dew Point:  12°C
Humidity:  77%
Barometer:  992 hPa
Summary:  Light Rain
Clouds:  Partly Cloudy
Visibility:  5 km
Cloud details:  Few Clouds 579 m
Partly Cloudy 1341 m
2018/09/19 18:20 ENHD 191820Z 18040G59KT 5000 -RA FEW019 SCT044 16/12 Q0992
ENQC - Troll-C Heli, Norway
Distance from station: NW 106km
Updated: 19-09-2018 20:20
Mostly Cloudy
Mostly Cloudy  
 Wind from S
Wind: S 83 km/h, Gust: 104 km/h
Temperature:  14°C
Dew Point:  9°C
Humidity:  72%
Barometer:  980 hPa
Clouds:  Mostly Cloudy
Visibility:  11 miles
Cloud details:  Mostly Cloudy 853 m
2018/09/19 18:20 ENQC 191820Z AUTO 19045G56KT 7000NDV BKN028/// 14/09 Q0980 W///S6
ENOA - Oseberg, Norway
Distance from station: WNW 128km
Updated: 19-09-2018 19:50
Mostly Cloudy
Mostly Cloudy  
 Wind from SSW
Wind: SSW 96 km/h, Gust: 115 km/h
Temperature:  14°C
Dew Point:  10°C
Humidity:  77%
Barometer:  980 hPa
Clouds:  Mostly Cloudy
Visibility:  8 km
Cloud details:  Mostly Cloudy 457 m
2018/09/19 17:50 ENOA 191750Z 20052G62KT 8000 BKN015 14/10 Q0980 W///S6
ENBL - Forde/Bringeland, Norway
Distance from station: NNE 130km
Updated: 19-09-2018 20:20
Rain showers, Mostly Cloudy
Rain showers, Mostly Cloudy  
 Wind from S
Wind: S 37 km/h
Temperature:  12°C
Dew Point:  9°C
Humidity:  82%
Barometer:  986 hPa
Summary:  Rain Showers
Clouds:  Mostly Cloudy
Visibility:  9 km
Cloud details:  Partly Cloudy 914 m
Mostly Cloudy 1372 m
2018/09/19 18:20 ENBL 191820Z 17020KT 9000 SHRA SCT030 BKN045 12/09 Q0986
ENFL - Floro, Norway
Distance from station: N 144km
Updated: 19-09-2018 20:20
Heavy Rain, Mostly Cloudy
Heavy Rain, Mostly Cloudy  
 Wind from SSE
Wind: SSE 61 km/h, Gust: 83 km/h
Temperature:  12°C
Dew Point:  10°C
Humidity:  88%
Barometer:  983 hPa
Summary:  Heavy Rain
Clouds:  Mostly Cloudy
Visibility:  9 km
Cloud details:  Few Clouds 305 m
Partly Cloudy 549 m
Mostly Cloudy 732 m
2018/09/19 18:20 ENFL 191820Z 15033G45KT 9000 +RA FEW010 SCT018 BKN024 12/10 Q0983
ENSG - Sogndal/Haukasen, Norway
Distance from station: NE 145km
Updated: 19-09-2018 19:50
Light rain, Mostly Cloudy
Light rain, Mostly Cloudy  
 Wind from WSW
Wind: WSW 20 km/h, Gust: 41 km/h
Temperature:  14°C
Dew Point:  7°C
Humidity:  63%
Barometer:  991 hPa
Summary:  Light Rain
Clouds:  Mostly Cloudy
Visibility:  10 km
Cloud details:  Few Clouds 457 m
Mostly Cloudy 1524 m
2018/09/19 17:50 ENSG 191750Z 24011G22KT 9999 -RA FEW015 BKN050 14/07 Q0991 RMK WIND 3806FT 17031G45KT
ENZV - Stavanger/Sola(A, Norway
Distance from station: S 159km
Updated: 19-09-2018 20:20
Light rain, Mostly Cloudy
Light rain, Mostly Cloudy  
 Wind from S
Wind: S 56 km/h, Gust: 83 km/h
Temperature:  17°C
Dew Point:  13°C
Humidity:  77%
Barometer:  994 hPa
Summary:  Light Rain
Clouds:  Mostly Cloudy
Visibility:  9 km
Cloud details:  Few Clouds 457 m
Partly Cloudy 701 m
Mostly Cloudy 1036 m
2018/09/19 18:20 ENZV 191820Z 18030G45KT 9000 -RA FEW015 SCT023 BKN034 17/13 Q0994 NOSIG
ENHM - Heimdal Oilp, Norway
Distance from station: WSW 179km
Updated: 19-09-2018 20:20
Mostly Cloudy
Mostly Cloudy  
 Wind from SW
Wind: SW 102 km/h, Gust: 124 km/h
Temperature:  13°C
Dew Point:  7°C
Humidity:  67%
Barometer:  980 hPa
Clouds:  Mostly Cloudy
Visibility:  8 miles
Cloud details:  Few Clouds 671 m
Partly Cloudy 1006 m
Mostly Cloudy 1890 m
2018/09/19 18:20 ENHM 191820Z AUTO 23055G67KT 5000NDV FEW022/// SCT033/// BKN062/// 13/07 Q0980 W13/S6
ENSD - Sandane/Anda, Norway
Distance from station: NNE 180km
Updated: 19-09-2018 20:20
Light rain, Overcast
Light rain, Overcast  
 Wind from SSE
Wind: SSE 9 km/h
Temperature:  12°C
Dew Point:  9°C
Humidity:  82%
Barometer:  985 hPa
Summary:  Light Rain
Clouds:  Overcast
Visibility:  10 km
Cloud details:  Overcast 1890 m
2018/09/19 18:20 ENSD 191820Z 15005KT 100V180 9999 -RA VV062 12/09 Q0985 RMK WIND 1138FT VRB15G26KT

Script developed by  Saratoga-weather.org Adapted for the template by  Weerstation Leuven